Time;durP1;ratioP1;P1;durP2;ratioP2;P2;SDS_P1;SDS_P2;PMS_P1;PMS_P2;Temp;Humidity;BMP_temperature;BMP_pressure;BME280_temperature;BME280_humidity;BME280_pressure;Samples;Min_cycle;Max_cycle;Signal;HPM_P1;HPM_P2
2023/08/06 00:00:03;;;;;;;14.77;10.75;;;;;;;18.27;100.00;-18518.75;5107896;28;20519;-79
2023/08/06 00:02:28;;;;;;;16.25;11.13;;;;;;;18.22;100.00;-18517.53;5111080;28;20036;-78
2023/08/06 00:04:54;;;;;;;17.63;11.60;;;;;;;18.29;100.00;-18519.31;5103077;28;20156;-78
2023/08/06 00:07:20;;;;;;;17.73;12.27;;;;;;;18.08;100.00;-18513.72;5111579;28;20055;-76
2023/08/06 00:09:45;;;;;;;17.60;11.55;;;;;;;18.12;100.00;-18514.81;5096808;28;20073;-77
2023/08/06 00:12:11;;;;;;;16.02;11.95;;;;;;;18.06;100.00;-18513.16;5108371;28;20073;-78
2023/08/06 00:14:36;;;;;;;18.35;11.30;;;;;;;18.10;100.00;-18514.13;5088537;28;20039;-77
2023/08/06 00:17:02;;;;;;;17.85;12.30;;;;;;;18.04;100.00;-18512.75;5105547;28;20036;-78
2023/08/06 00:19:27;;;;;;;18.92;12.40;;;;;;;18.05;100.00;-18512.91;5112101;28;20100;-79
2023/08/06 00:21:52;;;;;;;17.17;12.13;;;;;;;18.07;100.00;-18513.44;5108285;28;20032;-79
2023/08/06 00:24:18;;;;;;;18.30;13.05;;;;;;;18.05;100.00;-18512.91;5104137;28;20441;-77
2023/08/06 00:26:43;;;;;;;16.95;11.90;;;;;;;17.97;100.00;-18510.72;5109039;28;20035;-78
2023/08/06 00:29:08;;;;;;;17.42;12.18;;;;;;;17.98;100.00;-18511.13;5111488;28;20042;-78
2023/08/06 00:31:34;;;;;;;16.52;13.05;;;;;;;17.99;100.00;-18511.25;5109699;28;20103;-77
2023/08/06 00:33:59;;;;;;;18.15;13.10;;;;;;;17.99;100.00;-18511.25;5106673;28;20052;-79
2023/08/06 00:36:24;;;;;;;17.27;13.07;;;;;;;18.00;100.00;-18511.53;5105099;28;20599;-78
2023/08/06 00:38:50;;;;;;;16.60;13.52;;;;;;;17.95;100.00;-18510.31;5104773;28;20048;-79
2023/08/06 00:41:15;;;;;;;16.23;12.70;;;;;;;18.09;100.00;-18513.84;5086238;28;20132;-79
2023/08/06 00:43:41;;;;;;;19.13;13.27;;;;;;;17.98;100.00;-18510.97;5087964;28;20058;-77
2023/08/06 00:46:06;;;;;;;19.58;12.55;;;;;;;17.95;100.00;-18510.16;5108375;28;20100;-77
2023/08/06 00:48:32;;;;;;;16.20;12.02;;;;;;;17.97;100.00;-18510.72;5101566;28;20411;-79
2023/08/06 00:50:58;;;;;;;16.45;12.23;;;;;;;18.00;100.00;-18511.53;5107870;28;20036;-78
2023/08/06 00:53:23;;;;;;;16.15;12.48;;;;;;;18.07;100.00;-18513.44;5105241;28;20050;-78
2023/08/06 00:55:50;;;;;;;17.45;12.55;;;;;;;18.04;100.00;-18512.63;5104287;28;21151;-79
2023/08/06 00:58:16;;;;;;;14.65;11.25;;;;;;;18.00;100.00;-18511.66;5090576;28;20051;-77
2023/08/06 01:00:41;;;;;;;15.65;12.32;;;;;;;18.06;100.00;-18513.16;5107398;28;20043;-77
2023/08/06 01:03:07;;;;;;;15.07;11.25;;;;;;;18.05;100.00;-18512.91;5109665;28;20040;-79
2023/08/06 01:05:32;;;;;;;16.55;11.75;;;;;;;18.14;100.00;-18515.22;5107979;28;20059;-79
2023/08/06 01:08:00;;;;;;;16.67;11.43;;;;;;;18.17;100.00;-18516.16;5108943;27;20043;-79
2023/08/06 01:10:35;;;;;;;15.52;11.20;;;;;;;18.23;100.00;-18517.81;5111932;28;20574;-76
2023/08/06 01:13:26;;;;;;;14.85;11.10;;;;;;;18.19;100.00;-18516.56;5093095;28;20040;-78
2023/08/06 01:15:59;;;;;;;14.27;11.25;;;;;;;18.15;100.00;-18515.47;5109272;28;20054;-79
2023/08/06 01:18:25;;;;;;;14.52;10.55;;;;;;;18.17;100.00;-18516.03;5107912;28;20061;-77
2023/08/06 01:20:50;;;;;;;14.63;11.60;;;;;;;18.17;100.00;-18516.03;5107289;28;20043;-77
2023/08/06 01:23:16;;;;;;;13.05;10.77;;;;;;;18.17;100.00;-18516.03;5106787;28;20457;-76
2023/08/06 01:25:53;;;;;;;13.93;11.30;;;;;;;18.12;100.00;-18514.81;5080045;28;20043;-78
2023/08/06 01:28:32;;;;;;;15.50;10.77;;;;;;;18.13;100.00;-18514.94;5102248;28;20129;-78
2023/08/06 01:31:01;;;;;;;16.65;11.50;;;;;;;18.14;100.00;-18515.34;5099766;28;20573;-77
2023/08/06 01:33:30;;;;;;;15.30;11.07;;;;;;;18.20;100.00;-18516.97;5099867;28;20052;-78
2023/08/06 01:35:57;;;;;;;14.68;11.18;;;;;;;18.31;100.00;-18519.72;5101557;28;20084;-78
2023/08/06 01:38:22;;;;;;;14.20;11.57;;;;;;;18.31;100.00;-18519.72;5083163;28;20476;-76
2023/08/06 01:40:48;;;;;;;15.65;11.75;;;;;;;18.20;100.00;-18516.84;5096545;28;20071;-78
2023/08/06 01:43:13;;;;;;;14.38;11.48;;;;;;;18.22;100.00;-18517.53;5087504;28;20071;-78
2023/08/06 01:45:38;;;;;;;14.70;11.77;;;;;;;18.17;100.00;-18516.03;5088686;28;20039;-78
2023/08/06 01:48:04;;;;;;;17.08;11.27;;;;;;;18.11;100.00;-18514.53;5103062;28;20046;-78
2023/08/06 01:50:29;;;;;;;17.45;11.88;;;;;;;18.09;100.00;-18513.97;5104824;28;20100;-77
2023/08/06 01:52:54;;;;;;;16.33;11.88;;;;;;;18.15;100.00;-18515.47;5104534;28;20054;-79
2023/08/06 01:55:20;;;;;;;17.10;12.18;;;;;;;18.10;100.00;-18514.25;5106321;28;20536;-77
2023/08/06 01:57:45;;;;;;;16.85;11.85;;;;;;;18.10;100.00;-18514.25;5103937;28;20581;-77
2023/08/06 02:00:11;;;;;;;16.10;11.98;;;;;;;17.94;100.00;-18509.88;5097089;28;20094;-78
2023/08/06 02:02:36;;;;;;;15.68;11.52;;;;;;;17.89;100.00;-18508.66;5102120;28;20035;-77
2023/08/06 02:05:02;;;;;;;16.05;12.00;;;;;;;17.96;100.00;-18510.44;5086395;28;20059;-78
2023/08/06 02:07:27;;;;;;;15.32;12.07;;;;;;;18.00;100.00;-18511.66;5103666;28;20126;-75
2023/08/06 02:09:52;;;;;;;16.08;12.27;;;;;;;17.97;100.00;-18510.72;5076677;28;20135;-78
2023/08/06 02:12:18;;;;;;;18.23;12.18;;;;;;;17.94;100.00;-18509.88;5103825;28;20042;-77
2023/08/06 02:14:43;;;;;;;17.08;11.90;;;;;;;17.95;100.00;-18510.16;5101587;28;20518;-79
2023/08/06 02:17:08;;;;;;;19.50;12.43;;;;;;;17.94;100.00;-18509.88;5100255;28;20495;-78
2023/08/06 02:19:34;;;;;;;18.70;12.63;;;;;;;17.92;100.00;-18509.34;5101214;28;20507;-79
2023/08/06 02:21:59;;;;;;;18.38;12.75;;;;;;;17.98;100.00;-18510.97;5100331;28;20100;-78
2023/08/06 02:24:24;;;;;;;18.88;12.95;;;;;;;17.94;100.00;-18510.03;5104348;28;20044;-77
2023/08/06 02:26:51;;;;;;;20.08;11.90;;;;;;;18.01;100.00;-18511.94;5102256;28;20591;-79
2023/08/06 02:29:17;;;;;;;15.57;11.63;;;;;;;17.91;100.00;-18509.22;5104572;28;20065;-77
2023/08/06 02:31:43;;;;;;;17.17;12.77;;;;;;;17.91;100.00;-18509.06;5085772;28;20039;-79
2023/08/06 02:34:08;;;;;;;17.00;12.60;;;;;;;17.90;100.00;-18508.94;5103271;28;20040;-78
2023/08/06 02:36:33;;;;;;;16.05;12.07;;;;;;;17.92;100.00;-18509.47;5101193;28;20035;-78
2023/08/06 02:38:59;;;;;;;20.25;13.07;;;;;;;17.90;100.00;-18508.81;5102792;28;20129;-79
2023/08/06 02:41:24;;;;;;;19.55;13.55;;;;;;;17.84;100.00;-18507.31;5102288;28;20043;-78
2023/08/06 02:43:49;;;;;;;17.25;12.60;;;;;;;17.80;100.00;-18506.34;5101720;28;20086;-78
2023/08/06 02:46:15;;;;;;;19.48;12.85;;;;;;;17.81;100.00;-18506.63;5101218;28;20044;-79
2023/08/06 02:48:40;;;;;;;19.08;13.57;;;;;;;17.93;100.00;-18509.75;5100510;28;20126;-78
2023/08/06 02:51:05;;;;;;;18.20;12.82;;;;;;;17.96;100.00;-18510.56;5098310;28;20122;-79
2023/08/06 02:53:31;;;;;;;18.05;12.35;;;;;;;17.94;100.00;-18509.88;5091015;28;20075;-78
2023/08/06 02:55:57;;;;;;;18.45;12.82;;;;;;;17.93;100.00;-18509.75;5083346;28;20138;-78
2023/08/06 02:58:22;;;;;;;19.35;13.23;;;;;;;17.94;100.00;-18510.03;5102301;28;20102;-77
2023/08/06 03:01:05;;;;;;;17.90;12.77;;;;;;;17.96;100.00;-18510.56;5098380;28;20085;-78
2023/08/06 03:03:31;;;;;;;20.30;13.38;;;;;;;17.88;100.00;-18508.38;5102364;28;20080;-79
2023/08/06 03:05:56;;;;;;;17.83;12.23;;;;;;;17.83;100.00;-18506.88;5100702;28;20039;-78
2023/08/06 03:08:22;;;;;;;18.80;13.57;;;;;;;17.87;100.00;-18508.13;5099164;28;20050;-78
2023/08/06 03:10:50;;;;;;;18.05;14.13;;;;;;;18.02;100.00;-18512.06;5093823;28;20122;-77
2023/08/06 03:13:16;;;;;;;21.73;13.43;;;;;;;17.92;100.00;-18509.34;5099890;28;20123;-79
2023/08/06 03:15:42;;;;;;;18.75;13.73;;;;;;;17.88;100.00;-18508.25;5100431;28;20047;-79
2023/08/06 03:18:07;;;;;;;17.80;13.85;;;;;;;17.87;100.00;-18508.13;5100258;28;20040;-79
2023/08/06 03:20:33;;;;;;;19.70;13.52;;;;;;;17.90;100.00;-18508.81;5103248;28;20634;-77
2023/08/06 03:22:58;;;;;;;20.45;14.43;;;;;;;17.77;100.00;-18505.53;5103309;28;20051;-77
2023/08/06 03:25:24;;;;;;;18.88;13.68;;;;;;;17.81;100.00;-18506.63;5101002;28;20108;-77
2023/08/06 03:27:49;;;;;;;19.20;13.95;;;;;;;17.83;100.00;-18506.88;5100346;28;20070;-77
2023/08/06 03:30:14;;;;;;;20.00;13.48;;;;;;;17.82;100.00;-18506.75;5104275;28;20532;-79
2023/08/06 03:32:40;;;;;;;21.10;13.82;;;;;;;17.76;100.00;-18505.25;5103851;28;20129;-77
2023/08/06 03:35:05;;;;;;;19.83;13.70;;;;;;;17.72;100.00;-18504.03;5106601;28;20043;-77
2023/08/06 03:37:31;;;;;;;20.75;14.63;;;;;;;17.60;100.00;-18500.88;5098365;28;20036;-78
2023/08/06 03:39:56;;;;;;;19.55;13.30;;;;;;;17.63;100.00;-18501.69;5089850;28;20053;-79
2023/08/06 03:42:21;;;;;;;20.42;14.60;;;;;;;17.76;100.00;-18505.25;5107448;28;20067;-77
2023/08/06 03:44:47;;;;;;;20.98;13.68;;;;;;;17.71;100.00;-18503.75;5104400;28;20040;-78
2023/08/06 03:47:13;;;;;;;21.73;14.02;;;;;;;17.79;100.00;-18505.94;5099904;28;20036;-79
2023/08/06 03:49:38;;;;;;;20.08;14.38;;;;;;;17.95;100.00;-18510.16;5087030;28;20071;-77
2023/08/06 03:52:04;;;;;;;20.58;15.00;;;;;;;17.84;100.00;-18507.31;5088760;28;20048;-78
2023/08/06 03:54:30;;;;;;;20.60;13.63;;;;;;;17.79;100.00;-18506.06;5104061;28;20039;-78
2023/08/06 03:56:55;;;;;;;21.17;13.75;;;;;;;17.69;100.00;-18503.19;5105671;28;20051;-79
2023/08/06 03:59:21;;;;;;;22.17;15.18;;;;;;;17.75;100.00;-18504.84;5101496;28;20036;-77
2023/08/06 04:01:46;;;;;;;20.95;14.07;;;;;;;17.70;100.00;-18503.63;5104422;28;20231;-78
2023/08/06 04:04:11;;;;;;;24.52;14.82;;;;;;;17.63;100.00;-18501.56;5105213;28;20098;-78
2023/08/06 04:06:37;;;;;;;19.05;14.38;;;;;;;17.52;100.00;-18498.69;5102994;28;20039;-78
2023/08/06 04:09:02;;;;;;;20.48;13.90;;;;;;;17.40;100.00;-18495.41;5105121;28;20091;-77
2023/08/06 04:11:28;;;;;;;21.63;14.52;;;;;;;17.40;100.00;-18495.56;5106654;28;20039;-79
2023/08/06 04:13:55;;;;;;;25.00;14.55;;;;;;;17.48;100.00;-18497.75;5102432;28;20051;-79
2023/08/06 04:16:20;;;;;;;21.67;14.68;;;;;;;17.54;100.00;-18499.25;5102902;28;20513;-78
2023/08/06 04:18:46;;;;;;;20.77;14.98;;;;;;;17.53;100.00;-18498.97;5099806;28;20032;-77
2023/08/06 04:21:11;;;;;;;21.13;14.55;;;;;;;17.62;100.00;-18501.44;5088030;28;20035;-79
2023/08/06 04:23:37;;;;;;;21.48;15.93;;;;;;;17.66;100.00;-18502.38;5104747;28;20511;-77
2023/08/06 04:26:02;;;;;;;23.85;14.82;;;;;;;17.62;100.00;-18501.28;5105045;28;20056;-78
2023/08/06 04:28:27;;;;;;;23.98;15.15;;;;;;;17.55;100.00;-18499.66;5104873;28;20541;-79
2023/08/06 04:30:53;;;;;;;23.83;16.27;;;;;;;17.49;100.00;-18498.03;5088548;28;20426;-78
2023/08/06 04:33:19;;;;;;;21.60;14.90;;;;;;;17.49;100.00;-18498.03;5101391;28;20165;-78
2023/08/06 04:35:45;;;;;;;22.58;14.68;;;;;;;17.53;100.00;-18498.97;5104237;28;20050;-78
2023/08/06 04:38:10;;;;;;;21.98;15.13;;;;;;;17.59;100.00;-18500.59;5104612;28;20051;-79
2023/08/06 04:40:36;;;;;;;22.95;16.40;;;;;;;17.58;100.00;-18500.34;5096684;28;20042;-77
2023/08/06 04:43:02;;;;;;;22.27;15.00;;;;;;;17.61;100.00;-18501.16;5101133;28;20061;-78
2023/08/06 04:45:27;;;;;;;25.17;16.13;;;;;;;17.68;100.00;-18503.06;5101439;28;20108;-78
2023/08/06 04:47:53;;;;;;;26.38;16.50;;;;;;;17.77;100.00;-18505.38;5104394;28;20052;-78
2023/08/06 04:50:19;;;;;;;23.65;16.67;;;;;;;17.74;100.00;-18504.69;5106373;28;20100;-79
2023/08/06 04:52:45;;;;;;;29.55;16.92;;;;;;;17.74;100.00;-18504.69;5104440;28;20728;-77
2023/08/06 04:55:10;;;;;;;27.25;16.63;;;;;;;17.72;100.00;-18504.16;5106107;28;20052;-78
2023/08/06 04:57:35;;;;;;;24.08;16.23;;;;;;;17.78;100.00;-18505.66;5105058;28;20514;-78
2023/08/06 05:00:01;;;;;;;26.95;18.02;;;;;;;18.04;100.00;-18512.63;5099970;28;20036;-78
2023/08/06 05:02:26;;;;;;;25.08;17.92;;;;;;;18.01;100.00;-18511.81;5098749;28;20399;-78
2023/08/06 05:04:51;;;;;;;27.33;18.58;;;;;;;18.03;100.00;-18512.34;5087827;28;20107;-78
2023/08/06 05:07:17;;;;;;;28.35;17.35;;;;;;;17.91;100.00;-18509.06;5104622;28;20104;-77
2023/08/06 05:09:42;;;;;;;27.23;18.23;;;;;;;18.00;100.00;-18511.66;5102621;28;20035;-78
2023/08/06 05:12:08;;;;;;;30.48;17.60;;;;;;;18.05;100.00;-18512.91;5101955;28;20072;-78
2023/08/06 05:14:33;;;;;;;27.67;18.17;;;;;;;18.00;100.00;-18511.53;5099710;28;20047;-78
2023/08/06 05:16:58;;;;;;;31.52;19.92;;;;;;;18.02;100.00;-18512.22;5102700;28;20060;-78
2023/08/06 05:19:24;;;;;;;32.55;18.98;;;;;;;18.14;100.00;-18515.34;5099338;28;20047;-78
2023/08/06 05:21:49;;;;;;;30.38;18.95;;;;;;;18.09;100.00;-18513.97;5102886;28;20036;-78
2023/08/06 05:24:14;;;;;;;28.88;19.52;;;;;;;18.10;100.00;-18514.25;5102769;28;20043;-80
2023/08/06 05:26:40;;;;;;;30.63;19.73;;;;;;;18.18;100.00;-18516.44;5098790;28;20048;-77
2023/08/06 05:29:05;;;;;;;32.30;19.95;;;;;;;18.15;100.00;-18515.63;5105667;28;20560;-78
2023/08/06 05:31:30;;;;;;;33.70;20.15;;;;;;;18.24;100.00;-18518.06;5102658;28;20048;-79
2023/08/06 05:33:56;;;;;;;32.53;20.23;;;;;;;18.29;100.00;-18519.31;5101835;28;20082;-76
2023/08/06 05:36:21;;;;;;;29.80;20.33;;;;;;;18.30;100.00;-18519.44;5103630;28;20067;-80
2023/08/06 05:38:47;;;;;;;31.65;20.45;;;;;;;18.53;100.00;-18525.56;5103240;28;20123;-78
2023/08/06 05:41:12;;;;;;;28.63;20.35;;;;;;;18.61;100.00;-18527.88;5103198;28;20043;-78
2023/08/06 05:43:38;;;;;;;33.45;20.20;;;;;;;18.81;100.00;-18533.06;5102717;28;20031;-78
2023/08/06 05:46:04;;;;;;;31.00;19.98;;;;;;;18.78;100.00;-18532.25;5102102;28;20039;-76
2023/08/06 05:48:29;;;;;;;29.80;19.95;;;;;;;18.83;100.00;-18533.63;5103089;28;20035;-79
2023/08/06 05:50:55;;;;;;;33.25;19.98;;;;;;;18.95;100.00;-18536.91;5093760;28;20503;-78
2023/08/06 05:53:20;;;;;;;36.50;21.95;;;;;;;18.81;100.00;-18533.06;5101908;28;20769;-77
2023/08/06 05:55:45;;;;;;;35.55;21.85;;;;;;;19.05;100.00;-18539.50;5102033;28;20043;-78
2023/08/06 05:58:11;;;;;;;35.42;21.17;;;;;;;19.01;100.00;-18538.41;5099044;28;20245;-77
2023/08/06 06:00:36;;;;;;;28.48;19.65;;;;;;;18.96;100.00;-18537.03;5101256;28;20340;-78
2023/08/06 06:03:02;;;;;;;35.10;20.70;;;;;;;18.83;100.00;-18533.63;5100990;28;20437;-78
2023/08/06 06:05:28;;;;;;;30.02;20.38;;;;;;;18.75;100.00;-18531.44;5101186;28;20132;-79
2023/08/06 06:07:53;;;;;;;28.40;18.13;;;;;;;18.74;100.00;-18531.16;5102306;28;20040;-78
2023/08/06 06:10:18;;;;;;;29.40;20.20;;;;;;;18.86;100.00;-18534.56;5088575;28;20043;-78
2023/08/06 06:12:44;;;;;;;33.10;20.52;;;;;;;18.81;100.00;-18533.22;5099748;28;20132;-78
2023/08/06 06:15:10;;;;;;;31.00;19.95;;;;;;;18.81;100.00;-18533.22;5104464;28;20656;-78
2023/08/06 06:17:35;;;;;;;30.38;19.75;;;;;;;18.70;100.00;-18530.34;5087584;28;20043;-78
2023/08/06 06:20:00;;;;;;;29.20;19.10;;;;;;;18.69;100.00;-18530.06;5102841;28;20039;-79
2023/08/06 06:22:26;;;;;;;30.50;19.55;;;;;;;18.70;100.00;-18530.34;5102054;28;20051;-80
2023/08/06 06:24:51;;;;;;;29.05;18.77;;;;;;;18.75;100.00;-18531.44;5098551;28;20047;-79
2023/08/06 06:27:17;;;;;;;27.55;18.52;;;;;;;18.79;100.00;-18532.66;5097997;28;20070;-78
2023/08/06 06:29:42;;;;;;;27.80;19.23;;;;;;;18.78;100.00;-18532.25;5089690;28;20059;-79
2023/08/06 06:32:16;;;;;;;32.15;20.13;;;;;;;18.77;100.00;-18532.13;5102060;28;20526;-79
2023/08/06 06:34:44;;;;;;;32.08;19.75;;;;;;;18.85;100.00;-18534.31;5103595;27;20040;-79
2023/08/06 06:37:09;;;;;;;27.00;19.25;;;;;;;19.15;100.00;-18542.34;5103424;28;20054;-79
2023/08/06 06:39:35;;;;;;;28.65;18.52;;;;;;;19.28;100.00;-18545.63;5084998;28;20036;-77
2023/08/06 06:42:00;;;;;;;26.70;17.70;;;;;;;19.21;100.00;-18543.84;5105892;28;20043;-80
2023/08/06 06:44:25;;;;;;;25.65;18.50;;;;;;;19.28;100.00;-18545.63;5107668;28;20035;-80
2023/08/06 06:46:51;;;;;;;24.17;17.95;;;;;;;19.38;100.00;-18548.34;5103570;28;20435;-78
2023/08/06 06:49:19;;;;;;;24.85;18.13;;;;;;;19.59;100.00;-18553.91;5108623;28;20118;-80
2023/08/06 06:51:44;;;;;;;24.73;18.02;;;;;;;19.54;100.00;-18552.69;5106110;28;20046;-81
2023/08/06 06:54:10;;;;;;;24.23;18.35;;;;;;;19.39;100.00;-18548.59;5106383;28;20491;-80
2023/08/06 06:56:35;;;;;;;22.35;17.45;;;;;;;19.53;100.00;-18552.44;5107139;28;20479;-78
2023/08/06 06:59:00;;;;;;;21.92;17.08;;;;;;;19.51;100.00;-18551.75;5108489;28;20036;-80
2023/08/06 07:01:26;;;;;;;21.75;18.02;;;;;;;19.60;100.00;-18554.19;5109010;28;20439;-79
2023/08/06 07:03:51;;;;;;;23.55;17.27;;;;;;;19.58;100.00;-18553.78;5108281;28;20054;-78
2023/08/06 07:06:18;;;;;;;21.05;16.17;;;;;;;19.65;100.00;-18555.41;5098281;28;20039;-80
2023/08/06 07:08:44;;;;;;;22.52;16.33;;;;;;;19.61;100.00;-18554.59;5093264;28;20105;-80
2023/08/06 07:11:09;;;;;;;23.65;15.73;;;;;;;19.45;100.00;-18550.09;5112010;28;20055;-78
2023/08/06 07:13:34;;;;;;;20.85;15.52;;;;;;;19.58;100.00;-18553.66;5111351;28;20067;-80
2023/08/06 07:16:00;;;;;;;21.08;14.90;;;;;;;19.41;100.00;-18549.03;5109048;28;20054;-78
2023/08/06 07:18:25;;;;;;;19.88;15.55;;;;;;;19.42;100.00;-18549.28;5106602;28;20035;-80
2023/08/06 07:20:52;;;;;;;21.17;16.33;;;;;;;19.61;100.00;-18554.59;5111995;28;20047;-78
2023/08/06 07:23:25;;;;;;;18.25;14.85;;;;;;;19.58;100.00;-18553.66;5113279;28;20047;-77
2023/08/06 07:25:51;;;;;;;19.48;15.68;;;;;;;19.74;100.00;-18557.88;5117221;28;20097;-77
2023/08/06 07:28:16;;;;;;;17.25;13.77;;;;;;;19.68;100.00;-18556.38;5123153;28;20099;-77
2023/08/06 07:30:43;;;;;;;15.52;12.95;;;;;;;19.68;100.00;-18556.38;5097989;28;20436;-79
2023/08/06 07:33:08;;;;;;;16.25;12.50;;;;;;;19.69;100.00;-18556.66;5107499;28;20043;-80
2023/08/06 07:35:34;;;;;;;16.45;13.27;;;;;;;19.89;100.00;-18561.97;5113664;28;20089;-79
2023/08/06 07:38:00;;;;;;;19.30;14.00;;;;;;;19.89;100.00;-18561.97;5114290;28;20036;-76
2023/08/06 07:40:25;;;;;;;21.80;14.20;;;;;;;19.81;100.00;-18559.91;5114023;28;20039;-80
2023/08/06 07:42:51;;;;;;;20.75;14.20;;;;;;;20.05;100.00;-18566.19;5112670;28;20039;-78
2023/08/06 07:45:16;;;;;;;18.45;14.50;;;;;;;19.91;100.00;-18562.38;5111488;28;20042;-79
2023/08/06 07:47:42;;;;;;;16.48;13.52;;;;;;;20.20;100.00;-18570.13;5112274;28;20047;-80
2023/08/06 07:50:08;;;;;;;16.38;12.75;;;;;;;20.06;100.00;-18566.59;5110754;28;20477;-80
2023/08/06 07:52:34;;;;;;;15.15;12.35;;;;;;;20.12;100.00;-18568.09;5112770;28;20035;-80
2023/08/06 07:55:01;;;;;;;16.00;12.70;;;;;;;20.18;100.00;-18569.72;5097395;28;20053;-78
2023/08/06 07:57:26;;;;;;;17.13;11.30;;;;;;;20.33;100.00;-18573.66;5095973;28;20032;-79
2023/08/06 07:59:54;;;;;;;14.82;12.52;;;;;;;20.47;100.00;-18577.47;5106178;28;20537;-79
2023/08/06 08:02:19;;;;;;;13.85;11.27;;;;;;;20.61;100.00;-18581.03;5107027;28;20040;-80
2023/08/06 08:04:47;;;;;;;14.95;11.55;;;;;;;20.40;100.00;-18575.56;5108030;28;20445;-79
2023/08/06 08:07:13;;;;;;;15.20;10.77;;;;;;;20.34;100.00;-18573.94;5108307;28;20414;-79
2023/08/06 08:09:38;;;;;;;14.10;10.82;;;;;;;20.64;100.00;-18581.84;5110077;28;20036;-79
2023/08/06 08:12:04;;;;;;;12.95;9.98;;;;;;;20.65;100.00;-18582.09;5111477;28;20039;-80
2023/08/06 08:14:35;;;;;;;10.85;9.05;;;;;;;20.71;100.00;-18583.88;5108983;28;20437;-77
2023/08/06 08:17:02;;;;;;;11.55;9.20;;;;;;;20.85;100.00;-18587.41;5106594;28;20119;-78
2023/08/06 08:19:28;;;;;;;10.82;9.27;;;;;;;20.87;100.00;-18588.09;5107825;28;20067;-78
2023/08/06 08:21:54;;;;;;;10.77;9.00;;;;;;;20.79;100.00;-18585.91;5107565;28;20451;-78
2023/08/06 08:24:19;;;;;;;11.70;8.52;;;;;;;20.82;100.00;-18586.72;5088585;28;20054;-78
2023/08/06 08:26:45;;;;;;;11.40;8.00;;;;;;;20.76;100.00;-18585.09;5109790;28;20046;-79
2023/08/06 08:29:10;;;;;;;10.60;8.55;;;;;;;20.70;100.00;-18583.47;5110076;28;20390;-79
2023/08/06 08:31:39;;;;;;;11.00;8.65;;;;;;;20.83;100.00;-18587.00;5107983;28;20040;-79
2023/08/06 08:34:05;;;;;;;12.30;8.45;;;;;;;20.94;100.00;-18589.88;5105222;28;20047;-79
2023/08/06 08:36:31;;;;;;;12.40;8.60;;;;;;;20.94;100.00;-18590.00;5090919;28;20035;-80
2023/08/06 08:38:56;;;;;;;9.15;7.38;;;;;;;20.76;100.00;-18584.97;5106597;28;20043;-79
2023/08/06 08:41:21;;;;;;;12.77;8.13;;;;;;;20.93;100.00;-18589.72;5108280;28;20097;-80
2023/08/06 08:43:50;;;;;;;15.10;8.32;;;;;;;21.01;100.00;-18591.63;5088226;28;20784;-78
2023/08/06 08:46:17;;;;;;;13.75;8.77;;;;;;;20.96;100.00;-18590.53;5107863;28;20035;-78
2023/08/06 08:48:43;;;;;;;12.23;9.00;;;;;;;21.14;100.00;-18595.16;5103145;28;20040;-77
2023/08/06 08:51:08;;;;;;;13.90;9.05;;;;;;;21.20;100.00;-18596.78;5106206;28;20042;-77
2023/08/06 08:53:38;;;;;;;12.35;9.13;;;;;;;21.30;100.00;-18599.53;5105642;28;20682;-79
2023/08/06 08:56:05;;;;;;;10.88;9.00;;;;;;;21.34;100.00;-18600.59;5097366;28;20089;-79
2023/08/06 08:58:30;;;;;;;12.95;9.05;;;;;;;21.43;100.00;-18602.91;5104203;28;20031;-80
2023/08/06 09:00:56;;;;;;;11.48;9.02;;;;;;;21.66;100.00;-18609.03;5103702;28;20040;-79
2023/08/06 09:03:22;;;;;;;12.13;8.90;;;;;;;21.78;100.00;-18612.31;5103777;28;20058;-79
2023/08/06 09:05:51;;;;;;;12.90;9.10;;;;;;;21.85;100.00;-18614.19;5106903;28;20044;-78
2023/08/06 09:08:19;;;;;;;10.38;8.68;;;;;;;21.77;100.00;-18612.03;5107327;28;20044;-79
2023/08/06 09:10:48;;;;;;;11.82;9.30;;;;;;;21.89;100.00;-18615.16;5105538;28;20043;-80
2023/08/06 09:13:13;;;;;;;12.23;9.25;;;;;;;22.15;100.00;-18621.94;5106014;28;20035;-77
2023/08/06 09:15:39;;;;;;;10.70;9.38;;;;;;;21.97;100.00;-18617.19;5105989;28;20506;-80
2023/08/06 09:18:11;;;;;;;12.18;9.30;;;;;;;21.93;100.00;-18616.09;5087390;28;20592;-79
2023/08/06 09:20:39;;;;;;;12.13;9.82;;;;;;;22.06;100.00;-18619.78;5107582;28;20418;-79
2023/08/06 09:23:10;;;;;;;11.38;8.40;;;;;;;22.09;100.00;-18620.59;5101610;28;20035;-79
2023/08/06 09:25:39;;;;;;;10.43;7.03;;;;;;;22.41;100.00;-18628.88;5103491;28;20055;-78
2023/08/06 09:28:05;;;;;;;;;;;;;;;22.62;100.00;-18634.56;5106955;28;20525;-78
2023/08/06 09:30:33;;;;;;;8.73;5.32;;;;;;;22.53;100.00;-18632.28;5104459;28;19915;-77
2023/08/06 09:32:58;;;;;;;7.00;5.03;;;;;;;22.63;100.00;-18634.84;5080730;28;20043;-79
2023/08/06 09:35:24;;;;;;;7.63;4.80;;;;;;;22.41;100.00;-18629.00;5082919;28;20500;-78
2023/08/06 09:37:49;;;;;;;5.50;3.97;;;;;;;22.64;100.00;-18635.13;5100201;28;20086;-78
2023/08/06 09:40:31;;;;;;;4.55;3.75;;;;;;;22.70;100.00;-18636.75;5106305;28;20046;-78
2023/08/06 09:42:57;;;;;;;6.43;4.10;;;;;;;22.45;100.00;-18630.09;5102971;27;20036;-78
2023/08/06 09:45:23;;;;;;;6.55;3.72;;;;;;;22.62;100.00;-18634.56;5099214;28;20048;-79
2023/08/06 09:47:49;;;;;;;6.25;4.20;;;;;;;22.64;100.00;-18635.13;5092481;28;20044;-78
2023/08/06 09:50:18;;;;;;;6.35;4.38;;;;;;;22.59;100.00;-18633.75;5106285;28;20105;-78
2023/08/06 09:52:44;;;;;;;5.45;4.45;;;;;;;22.48;100.00;-18630.91;5106223;28;20127;-79
2023/08/06 09:55:12;;;;;;;8.10;4.50;;;;;;;22.47;100.00;-18630.63;5101840;28;20099;-79
2023/08/06 09:57:38;;;;;;;6.03;4.63;;;;;;;22.60;100.00;-18634.03;5084241;28;20031;-79
2023/08/06 10:00:04;;;;;;;6.47;4.95;;;;;;;22.53;100.00;-18632.13;5105749;28;20047;-80
2023/08/06 10:02:31;;;;;;;6.28;4.50;;;;;;;22.52;100.00;-18632.00;5111082;28;20035;-79
2023/08/06 10:04:58;;;;;;;4.80;4.20;;;;;;;22.67;100.00;-18635.78;5101833;28;20448;-77
2023/08/06 10:07:24;;;;;;;6.13;4.22;;;;;;;22.88;100.00;-18641.50;5105943;28;20558;-79
2023/08/06 10:09:49;;;;;;;7.65;4.13;;;;;;;22.93;100.00;-18642.72;5103244;28;20123;-77
2023/08/06 10:12:18;;;;;;;7.05;4.63;;;;;;;23.11;100.00;-18647.47;5097373;28;20057;-78
2023/08/06 10:14:45;;;;;;;6.43;4.20;;;;;;;23.39;100.00;-18655.06;5096324;28;20040;-79
2023/08/06 10:17:13;;;;;;;5.78;3.30;;;;;;;23.16;100.00;-18648.97;5105508;28;20047;-79
2023/08/06 10:19:42;;;;;;;5.87;4.30;;;;;;;22.98;100.00;-18644.06;5100791;28;20133;-78
2023/08/06 10:22:15;;;;;;;7.03;4.85;;;;;;;23.13;100.00;-18648.00;5077127;28;20277;-78
2023/08/06 10:24:57;;;;;;;7.22;5.20;;;;;;;23.23;100.00;-18650.72;5086180;28;20070;-80
2023/08/06 10:27:31;;;;;;;7.45;5.30;;;;;;;22.83;100.00;-18640.00;5072526;28;20051;-79
2023/08/06 10:30:32;;;;;;;8.63;5.90;;;;;;;23.10;100.00;-18647.34;5103183;28;20051;-79
2023/08/06 10:33:02;;;;;;;8.25;6.55;;;;;;;23.18;100.00;-18649.50;5099395;28;20035;-79
2023/08/06 10:35:43;;;;;;;8.05;6.43;;;;;;;23.21;100.00;-18650.19;5094257;28;20047;-78
2023/08/06 10:38:10;;;;;;;8.05;6.40;;;;;;;23.27;100.00;-18651.69;5096566;28;20127;-79
2023/08/06 10:40:56;;;;;;;8.75;7.22;;;;;;;23.21;100.00;-18650.19;5105913;28;20114;-78
2023/08/06 10:43:31;;;;;;;12.05;7.35;;;;;;;23.29;100.00;-18652.22;5061739;28;20520;-79
2023/08/06 10:46:02;;;;;;;7.95;6.05;;;;;;;22.94;100.00;-18643.13;5107672;28;20042;-79
2023/08/06 10:48:38;;;;;;;8.18;6.63;;;;;;;23.19;100.00;-18649.78;5060632;28;20062;-78
2023/08/06 10:51:08;;;;;;;9.73;6.90;;;;;;;23.24;100.00;-18650.88;5095426;28;20153;-78
2023/08/06 10:53:34;;;;;;;10.43;6.60;;;;;;;23.36;100.00;-18654.13;5074500;28;20036;-80
2023/08/06 10:56:00;;;;;;;7.00;5.80;;;;;;;23.40;100.00;-18655.34;5041050;28;20056;-78
2023/08/06 10:58:28;;;;;;;8.75;6.32;;;;;;;23.81;100.00;-18666.06;5058196;28;20076;-78
2023/08/06 11:00:56;;;;;;;9.53;6.20;;;;;;;24.26;100.00;-18677.97;5050788;28;20037;-80